createdAt,value
2019-04-05T00:00:06.285Z,51.83
2019-04-05T00:02:33.428Z,52.60
2019-04-05T00:05:00.684Z,53.50
2019-04-05T00:07:28.024Z,53.90
2019-04-05T00:09:55.664Z,49.77
2019-04-05T00:12:22.896Z,52.33
2019-04-05T00:14:50.197Z,54.07
2019-04-05T00:17:17.461Z,51.33
2019-04-05T00:19:45.062Z,49.73
2019-04-05T00:22:12.271Z,51.50
2019-04-05T00:24:39.673Z,53.30
2019-04-05T00:27:07.187Z,51.00
2019-04-05T00:29:34.436Z,52.50
2019-04-05T00:32:01.689Z,48.50
2019-04-05T00:34:28.976Z,51.57
2019-04-05T00:36:56.268Z,51.20
2019-04-05T00:39:23.549Z,51.47
2019-04-05T00:41:50.780Z,53.57
2019-04-05T00:44:18.028Z,56.30
2019-04-05T00:46:45.289Z,53.93
2019-04-05T00:49:12.605Z,54.93
2019-04-05T00:51:39.893Z,49.67
2019-04-05T00:54:07.149Z,57.47
2019-04-05T00:56:34.445Z,52.90
2019-04-05T00:59:01.749Z,60.07
2019-04-05T01:01:28.997Z,56.20
2019-04-05T01:03:56.216Z,59.60
2019-04-05T01:06:23.456Z,64.60
2019-04-05T01:08:50.835Z,64.57
2019-04-05T01:11:18.092Z,68.50
2019-04-05T01:13:45.404Z,67.27
2019-04-05T01:16:12.631Z,61.93
2019-04-05T01:18:40.193Z,68.70
2019-04-05T01:21:10.028Z,63.43
2019-04-05T01:23:37.384Z,61.43
2019-04-05T01:26:05.179Z,66.67
2019-04-05T01:28:33.005Z,65.87
2019-04-05T01:31:00.605Z,68.37
2019-04-05T01:33:27.857Z,65.13
2019-04-05T01:35:55.088Z,62.80
2019-04-05T01:38:22.483Z,59.80
2019-04-05T01:40:50.016Z,68.60
2019-04-05T01:43:17.816Z,67.97
2019-04-05T01:45:53.564Z,69.43
2019-04-05T01:48:14.728Z,67.37
2019-04-05T01:50:41.978Z,66.57
2019-04-05T01:53:09.251Z,67.60
2019-04-05T01:55:36.512Z,67.60
2019-04-05T01:58:03.769Z,67.80
2019-04-05T02:00:31.061Z,63.53
2019-04-05T02:02:58.790Z,66.67
2019-04-05T02:05:26.393Z,67.00
2019-04-05T02:07:53.754Z,64.47
2019-04-05T02:10:20.999Z,62.17
2019-04-05T02:12:48.250Z,65.90
2019-04-05T02:15:40.856Z,69.30
2019-04-05T02:18:08.095Z,66.03
2019-04-05T02:20:35.320Z,64.17
2019-04-05T02:23:02.573Z,64.00
2019-04-05T02:25:29.925Z,69.03
2019-04-05T02:27:57.156Z,68.10
2019-04-05T02:30:25.221Z,63.90
2019-04-05T02:32:52.455Z,65.77
2019-04-05T02:35:19.699Z,63.23
2019-04-05T02:37:47.004Z,71.80
2019-04-05T02:40:15.521Z,65.77
2019-04-05T02:42:45.461Z,62.83
2019-04-05T02:45:13.328Z,70.10
2019-04-05T02:47:43.803Z,70.57
2019-04-05T02:50:11.412Z,72.70
2019-04-05T02:52:41.710Z,67.87
2019-04-05T02:55:10.320Z,66.53
2019-04-05T02:57:38.023Z,62.47
2019-04-05T03:00:05.592Z,64.20
2019-04-05T03:02:34.154Z,69.80
2019-04-05T03:05:01.627Z,64.00
2019-04-05T03:07:29.284Z,65.03
2019-04-05T03:09:57.491Z,67.63
2019-04-05T03:12:25.339Z,65.70
2019-04-05T03:14:53.544Z,62.00
2019-04-05T03:17:21.664Z,57.47
2019-04-05T03:19:50.911Z,61.90
2019-04-05T03:22:18.961Z,62.23
2019-04-05T03:24:47.017Z,59.87
2019-04-05T03:27:19.833Z,58.43
2019-04-05T03:29:47.150Z,58.80
2019-04-05T03:32:15.223Z,59.87
2019-04-05T03:34:44.236Z,58.37
2019-04-05T03:37:11.837Z,56.80
2019-04-05T03:39:39.494Z,59.17
2019-04-05T03:42:07.433Z,54.07
2019-04-05T03:44:35.462Z,54.67
2019-04-05T03:47:02.794Z,57.53
2019-04-05T03:49:30.073Z,58.97
2019-04-05T03:51:57.422Z,60.37
2019-04-05T03:54:24.794Z,64.00
2019-04-05T03:56:52.173Z,61.43
2019-04-05T03:59:19.677Z,61.27
2019-04-05T04:01:46.989Z,63.17
2019-04-05T04:04:14.384Z,60.63
2019-04-05T04:06:41.609Z,64.47
2019-04-05T04:09:08.935Z,65.20
2019-04-05T04:11:36.573Z,62.53
2019-04-05T04:14:04.368Z,61.67
2019-04-05T04:16:31.668Z,61.93
2019-04-05T04:18:59.629Z,59.13
2019-04-05T04:21:40.392Z,59.67
2019-04-05T04:24:08.361Z,62.77
2019-04-05T04:26:35.729Z,62.63
2019-04-05T04:29:03.222Z,58.97
2019-04-05T04:31:30.562Z,63.10
2019-04-05T04:33:58.026Z,61.27
2019-04-05T04:36:25.481Z,65.67
2019-04-05T04:38:53.329Z,60.37
2019-04-05T04:41:20.536Z,63.80
2019-04-05T04:43:47.988Z,63.83
2019-04-05T04:46:15.769Z,62.80
2019-04-05T04:48:43.541Z,60.57
2019-04-05T04:51:11.740Z,61.03
2019-04-05T04:53:40.428Z,60.20
2019-04-05T04:56:07.751Z,60.07
2019-04-05T04:58:35.167Z,68.23
2019-04-05T05:01:02.756Z,63.87
2019-04-05T05:03:30.117Z,64.50
2019-04-05T05:05:57.633Z,61.63
2019-04-05T05:08:25.097Z,59.07
2019-04-05T05:10:52.480Z,60.83
2019-04-05T05:13:19.899Z,65.03
2019-04-05T05:15:47.483Z,64.30
2019-04-05T05:18:14.825Z,71.50
2019-04-05T05:20:42.878Z,62.63
2019-04-05T05:23:10.988Z,59.03
2019-04-05T05:25:38.321Z,61.23
2019-04-05T05:28:05.795Z,62.97
2019-04-05T05:30:33.233Z,60.83
2019-04-05T05:33:00.610Z,58.33
2019-04-05T05:35:27.842Z,61.23
2019-04-05T05:37:55.342Z,60.50
2019-04-05T05:40:34.134Z,62.10
2019-04-05T05:42:51.998Z,60.30
2019-04-05T05:45:19.818Z,61.07
2019-04-05T05:47:52.142Z,62.23
2019-04-05T05:50:16.481Z,54.33
2019-04-05T05:52:43.821Z,52.97
2019-04-05T05:55:11.144Z,54.90
2019-04-05T05:57:38.393Z,54.17
2019-04-05T06:00:07.437Z,54.93
2019-04-05T06:02:36.488Z,52.50
2019-04-05T06:05:03.984Z,52.73
2019-04-05T06:07:31.335Z,57.10
2019-04-05T06:09:59.751Z,53.27
2019-04-05T06:12:26.928Z,54.50
2019-04-05T06:14:54.032Z,56.17
2019-04-05T06:17:21.281Z,54.43
2019-04-05T06:19:48.525Z,65.53
2019-04-05T06:22:15.710Z,54.20
2019-04-05T06:24:42.965Z,58.70
2019-04-05T06:27:10.250Z,55.13
2019-04-05T06:29:37.392Z,60.67
2019-04-05T06:32:04.673Z,55.97
2019-04-05T06:34:31.928Z,51.50
2019-04-05T06:36:59.226Z,52.13
2019-04-05T06:39:26.665Z,50.00
2019-04-05T06:41:54.087Z,57.83
2019-04-05T06:44:21.283Z,52.10
2019-04-05T06:46:48.661Z,54.30
2019-04-05T06:49:15.739Z,50.77
2019-04-05T06:51:42.889Z,68.60
2019-04-05T06:54:10.237Z,54.63
2019-04-05T06:56:37.332Z,52.47
2019-04-05T06:59:04.710Z,53.87
2019-04-05T07:01:32.073Z,56.90
2019-04-05T07:03:59.378Z,54.87
2019-04-05T07:06:26.645Z,54.10
2019-04-05T07:08:54.288Z,55.60
2019-04-05T07:11:21.748Z,58.57
2019-04-05T07:13:49.001Z,58.43
2019-04-05T07:16:16.244Z,62.17
2019-04-05T07:18:43.771Z,57.13
2019-04-05T07:21:11.045Z,55.43
2019-04-05T07:23:38.299Z,58.53
2019-04-05T07:26:05.573Z,59.50
2019-04-05T07:28:33.269Z,68.13
2019-04-05T07:31:00.488Z,66.40
2019-04-05T07:33:27.495Z,62.50
2019-04-05T07:35:54.912Z,59.30
2019-04-05T07:38:22.433Z,65.00
2019-04-05T07:40:49.599Z,61.57
2019-04-05T07:43:16.981Z,55.07
2019-04-05T07:45:45.977Z,57.90
2019-04-05T07:48:13.097Z,58.97
2019-04-05T07:50:40.272Z,56.70
2019-04-05T07:53:07.625Z,55.60
2019-04-05T07:55:34.929Z,55.70
2019-04-05T07:58:02.136Z,58.00
2019-04-05T08:00:47.917Z,56.33
2019-04-05T08:03:15.189Z,58.10
2019-04-05T08:05:42.673Z,59.60
2019-04-05T08:08:14.208Z,55.83
2019-04-05T08:10:43.865Z,56.10
2019-04-05T08:13:13.743Z,54.23
2019-04-05T08:15:41.970Z,54.10
2019-04-05T08:18:09.200Z,52.80
2019-04-05T08:20:36.465Z,49.53
2019-04-05T08:23:03.801Z,51.43
2019-04-05T08:25:31.059Z,55.40
2019-04-05T08:27:58.296Z,55.57
2019-04-05T08:30:25.587Z,54.90
2019-04-05T08:32:52.635Z,60.17
2019-04-05T08:35:19.660Z,50.60
2019-04-05T08:37:47.080Z,49.93
2019-04-05T08:40:14.656Z,49.87
2019-04-05T08:42:42.102Z,53.67
2019-04-05T08:45:09.419Z,51.57
2019-04-05T08:47:36.683Z,53.77
2019-04-05T08:50:04.029Z,54.53
2019-04-05T08:52:31.167Z,50.13
2019-04-05T08:54:58.344Z,51.50
2019-04-05T08:57:25.555Z,49.90
2019-04-05T08:59:53.427Z,52.10
2019-04-05T09:02:20.700Z,47.90
2019-04-05T09:04:48.304Z,51.63
2019-04-05T09:07:15.515Z,52.43
2019-04-05T09:09:42.972Z,51.47
2019-04-05T09:12:10.984Z,49.87
2019-04-05T09:14:38.284Z,50.10
2019-04-05T09:17:05.527Z,51.00
2019-04-05T09:19:32.576Z,52.90
2019-04-05T09:21:59.871Z,51.03
2019-04-05T09:24:27.000Z,52.37
2019-04-05T09:26:54.577Z,49.40
2019-04-05T09:29:21.899Z,51.33
2019-04-05T09:31:49.157Z,53.60
2019-04-05T09:34:17.012Z,49.57
2019-04-05T09:36:44.437Z,53.00
2019-04-05T09:39:15.343Z,54.23
2019-04-05T09:41:40.751Z,49.27
2019-04-05T09:44:07.951Z,52.57
2019-04-05T09:46:45.889Z,50.90
2019-04-05T09:49:04.074Z,53.27
2019-04-05T09:51:31.383Z,47.23
2019-04-05T09:53:58.623Z,48.53
2019-04-05T09:56:25.769Z,52.43
2019-04-05T09:58:53.153Z,50.67
2019-04-05T10:01:20.282Z,47.67
2019-04-05T10:03:47.543Z,52.70
2019-04-05T10:06:14.930Z,54.90
2019-04-05T10:08:44.442Z,48.43
2019-04-05T10:11:11.685Z,56.60
2019-04-05T10:13:38.808Z,51.50
2019-04-05T10:16:06.023Z,56.20
2019-04-05T10:18:33.154Z,50.13
2019-04-05T10:21:00.397Z,49.40
2019-04-05T10:23:27.526Z,49.00
2019-04-05T10:25:54.667Z,52.93
2019-04-05T10:28:21.672Z,29.70
2019-04-05T10:30:51.730Z,48.83
2019-04-05T10:33:17.817Z,48.57
2019-04-05T10:35:45.082Z,46.17
2019-04-05T10:38:12.200Z,49.47
2019-04-05T10:40:39.323Z,55.00
2019-04-05T10:43:06.574Z,47.87
2019-04-05T10:45:33.817Z,56.73
2019-04-05T10:48:00.953Z,55.77
2019-04-05T10:50:28.225Z,39.67
2019-04-05T10:52:55.348Z,56.93
2019-04-05T10:55:22.667Z,58.73
2019-04-05T10:57:49.813Z,47.47
2019-04-05T11:00:18.029Z,39.37
2019-04-05T11:02:45.418Z,33.90
2019-04-05T11:05:14.109Z,52.63
2019-04-05T11:07:41.243Z,41.70
2019-04-05T11:10:08.735Z,54.40
2019-04-05T11:12:36.043Z,51.47
2019-04-05T11:15:04.566Z,39.50
2019-04-05T11:17:31.923Z,44.60
2019-04-05T11:19:58.951Z,52.40
2019-04-05T11:22:26.048Z,48.93
2019-04-05T11:24:53.088Z,44.80
2019-04-05T11:27:20.208Z,46.03
2019-04-05T11:29:47.459Z,41.07
2019-04-05T11:32:14.712Z,45.47
2019-04-05T11:34:42.620Z,51.17
2019-04-05T11:37:10.072Z,44.93
2019-04-05T11:39:37.292Z,46.27
2019-04-05T11:42:04.510Z,32.60
2019-04-05T11:44:32.503Z,44.47
2019-04-05T11:47:00.016Z,46.07
2019-04-05T11:49:28.932Z,45.57
2019-04-05T11:51:56.155Z,29.00
2019-04-05T11:54:23.334Z,37.73
2019-04-05T11:56:50.465Z,47.57
2019-04-05T11:59:17.849Z,43.87
2019-04-05T12:01:55.459Z,34.30
2019-04-05T12:04:22.474Z,42.70
2019-04-05T12:06:51.811Z,50.13
2019-04-05T12:09:18.443Z,45.07
2019-04-05T12:11:46.482Z,29.60
2019-04-05T12:14:13.693Z,48.40
2019-04-05T12:16:41.646Z,39.93
2019-04-05T12:19:08.915Z,39.60
2019-04-05T12:21:36.007Z,45.57
2019-04-05T12:24:03.240Z,50.03
2019-04-05T12:26:30.468Z,49.87
2019-04-05T12:28:57.711Z,39.20
2019-04-05T12:31:25.953Z,42.43
2019-04-05T12:33:53.104Z,32.90
2019-04-05T12:36:22.101Z,50.60
2019-04-05T12:38:49.340Z,34.47
2019-04-05T12:41:18.200Z,35.30
2019-04-05T12:43:45.620Z,25.80
2019-04-05T12:46:15.922Z,28.00
2019-04-05T12:48:45.469Z,41.27
2019-04-05T12:51:15.696Z,38.17
2019-04-05T12:53:43.391Z,38.23
2019-04-05T12:56:10.552Z,35.13
2019-04-05T12:58:37.823Z,27.53
2019-04-05T13:01:08.063Z,46.00
2019-04-05T13:03:33.934Z,43.13
2019-04-05T13:06:01.126Z,47.80
2019-04-05T13:08:28.496Z,47.70
2019-04-05T13:10:56.836Z,38.57
2019-04-05T13:13:26.848Z,44.57
2019-04-05T13:15:53.652Z,42.03
2019-04-05T13:18:20.703Z,48.50
2019-04-05T13:20:47.953Z,32.03
2019-04-05T13:23:15.049Z,48.60
2019-04-05T13:25:42.163Z,39.97
2019-04-05T13:28:13.545Z,39.80
2019-04-05T13:30:38.314Z,24.10
2019-04-05T13:33:05.548Z,37.60
2019-04-05T13:35:32.634Z,36.73
2019-04-05T13:38:00.684Z,34.37
2019-04-05T13:40:29.617Z,45.90
2019-04-05T13:43:01.678Z,41.37
2019-04-05T13:45:27.027Z,39.10
2019-04-05T13:47:54.024Z,43.57
2019-04-05T13:50:21.329Z,40.80
2019-04-05T13:52:48.564Z,41.83
2019-04-05T13:55:15.845Z,33.90
2019-04-05T13:57:43.108Z,39.87
2019-04-05T14:00:12.235Z,45.60
2019-04-05T14:02:39.434Z,44.80
2019-04-05T14:05:06.869Z,46.03
2019-04-05T14:07:34.311Z,42.20
2019-04-05T14:10:01.720Z,28.27
2019-04-05T14:12:31.412Z,42.93
2019-04-05T14:14:58.936Z,39.93
2019-04-05T14:17:25.921Z,23.03
2019-04-05T14:19:53.080Z,31.40
2019-04-05T14:22:22.246Z,34.50
2019-04-05T14:24:50.428Z,30.03
2019-04-05T14:27:17.894Z,37.10
2019-04-05T14:29:47.538Z,38.20
2019-04-05T14:32:21.072Z,40.57
2019-04-05T14:34:42.936Z,34.60
2019-04-05T14:37:10.191Z,33.33
2019-04-05T14:39:37.663Z,36.87
2019-04-05T14:42:09.867Z,38.00
2019-04-05T14:44:33.818Z,24.07
2019-04-05T14:47:00.970Z,23.63
2019-04-05T14:49:30.755Z,34.50
2019-04-05T14:52:01.227Z,37.37
2019-04-05T14:54:30.168Z,33.53
2019-04-05T14:56:57.515Z,35.00
2019-04-05T14:59:27.189Z,29.17
2019-04-05T15:01:54.271Z,32.17
2019-04-05T15:04:21.321Z,36.03
2019-04-05T15:06:50.303Z,30.87
2019-04-05T15:09:17.340Z,38.00
2019-04-05T15:11:44.439Z,37.03
2019-04-05T15:14:11.668Z,39.83
2019-04-05T15:16:38.892Z,32.73
2019-04-05T15:19:06.094Z,36.90
2019-04-05T15:21:34.882Z,35.40
2019-04-05T15:24:02.482Z,36.10
2019-04-05T15:26:29.715Z,34.80
2019-04-05T15:28:56.845Z,32.63
2019-04-05T15:31:26.492Z,40.10
2019-04-05T15:33:52.759Z,37.23
2019-04-05T15:36:19.866Z,34.10
2019-04-05T15:38:46.892Z,38.80
2019-04-05T15:41:13.906Z,36.20
2019-04-05T15:43:41.083Z,31.03
2019-04-05T15:46:08.304Z,40.63
2019-04-05T15:48:35.342Z,36.40
2019-04-05T15:51:02.551Z,38.50
2019-04-05T15:53:32.047Z,28.47
2019-04-05T15:55:58.732Z,40.30
2019-04-05T15:58:25.858Z,38.97
2019-04-05T16:00:53.096Z,39.43
2019-04-05T16:03:20.250Z,35.80
2019-04-05T16:05:47.442Z,38.17
2019-04-05T16:08:16.741Z,38.63
2019-04-05T16:10:45.623Z,40.33
2019-04-05T16:13:13.123Z,36.87
2019-04-05T16:15:40.139Z,40.90
2019-04-05T16:18:07.443Z,39.57
2019-04-05T16:20:34.721Z,39.37
2019-04-05T16:23:01.855Z,40.40
2019-04-05T16:25:29.098Z,36.30
2019-04-05T16:27:56.546Z,37.60
2019-04-05T16:30:25.241Z,38.07
2019-04-05T16:32:52.207Z,40.73
2019-04-05T16:35:19.504Z,35.70
2019-04-05T16:37:46.628Z,43.53
2019-04-05T16:40:14.456Z,36.03
2019-04-05T16:42:41.500Z,40.30
2019-04-05T16:45:09.752Z,36.97
2019-04-05T16:47:37.065Z,44.03
2019-04-05T16:50:05.149Z,43.30
2019-04-05T16:52:44.133Z,42.83
2019-04-05T16:55:01.403Z,45.70
2019-04-05T16:57:28.736Z,39.77
2019-04-05T16:59:55.984Z,41.20
2019-04-05T17:02:22.979Z,39.80
2019-04-05T17:04:50.083Z,39.60
2019-04-05T17:07:17.133Z,36.67
2019-04-05T17:09:44.301Z,38.63
2019-04-05T17:12:11.403Z,40.70
2019-04-05T17:14:38.648Z,36.43
2019-04-05T17:17:06.139Z,42.77
2019-04-05T17:19:33.172Z,36.37
2019-04-05T17:22:00.330Z,36.90
2019-04-05T17:24:29.677Z,29.67
2019-04-05T17:26:56.663Z,36.43
2019-04-05T17:29:23.867Z,30.73
2019-04-05T17:31:52.406Z,37.87
2019-04-05T17:34:19.624Z,32.77
2019-04-05T17:36:46.757Z,40.93
2019-04-05T17:39:14.272Z,29.80
2019-04-05T17:41:41.412Z,35.97
2019-04-05T17:44:08.660Z,26.37
2019-04-05T17:46:35.712Z,28.00
2019-04-05T17:49:02.907Z,35.70
2019-04-05T17:51:30.606Z,37.57
2019-04-05T17:53:58.066Z,27.37
2019-04-05T17:56:25.695Z,33.20
2019-04-05T17:58:53.650Z,35.53
2019-04-05T18:01:20.728Z,36.20
2019-04-05T18:03:47.888Z,35.70
2019-04-05T18:06:14.879Z,25.03
2019-04-05T18:08:42.098Z,31.07
2019-04-05T18:11:09.339Z,36.17
2019-04-05T18:13:36.554Z,24.20
2019-04-05T18:16:03.831Z,40.10
2019-04-05T18:18:30.871Z,37.60
2019-04-05T18:20:58.117Z,39.53
2019-04-05T18:23:25.892Z,38.50
2019-04-05T18:25:53.323Z,41.00
2019-04-05T18:28:21.960Z,39.20
2019-04-05T18:30:49.584Z,41.27
2019-04-05T18:33:16.817Z,37.23
2019-04-05T18:35:43.979Z,38.90
2019-04-05T18:38:11.084Z,37.10
2019-04-05T18:40:40.189Z,39.50
2019-04-05T18:43:08.364Z,41.50
2019-04-05T18:45:35.852Z,43.00
2019-04-05T18:48:03.095Z,44.93
2019-04-05T18:50:30.330Z,50.80
2019-04-05T18:52:57.608Z,41.27
2019-04-05T18:55:25.078Z,40.40
2019-04-05T18:57:52.279Z,34.80
2019-04-05T19:00:19.704Z,36.70
2019-04-05T19:02:47.169Z,32.33
2019-04-05T19:05:14.410Z,32.90
2019-04-05T19:07:41.676Z,34.27
2019-04-05T19:10:10.897Z,34.43
2019-04-05T19:12:39.950Z,35.73
2019-04-05T19:15:07.664Z,32.50
2019-04-05T19:17:35.080Z,28.60
2019-04-05T19:20:02.704Z,30.37
2019-04-05T19:22:30.117Z,28.40
2019-04-05T19:24:57.426Z,30.93
2019-04-05T19:27:24.710Z,27.37
2019-04-05T19:29:51.985Z,25.77
2019-04-05T19:49:44.413Z,24.07
2019-04-05T19:52:13.181Z,23.50
2019-04-05T19:54:40.755Z,23.97
2019-04-05T19:57:07.937Z,23.30
2019-04-05T19:59:35.388Z,21.67
2019-04-05T20:02:02.724Z,20.53
2019-04-05T20:04:30.001Z,20.80
2019-04-05T20:06:58.589Z,22.50
2019-04-05T20:09:26.882Z,21.33
2019-04-05T20:11:54.130Z,22.27
2019-04-05T20:14:21.376Z,20.83
2019-04-05T20:16:48.625Z,21.80
2019-04-05T20:19:15.913Z,21.70
2019-04-05T20:21:43.157Z,22.23
2019-04-05T20:24:14.296Z,21.67
2019-04-05T20:26:40.408Z,22.70
2019-04-05T20:29:07.649Z,23.37
2019-04-05T20:31:35.231Z,22.37
2019-04-05T20:34:02.403Z,22.90
2019-04-05T20:36:29.677Z,22.10
2019-04-05T20:38:56.919Z,25.97
2019-04-05T20:41:24.234Z,23.53
2019-04-05T20:43:51.576Z,24.20
2019-04-05T20:46:21.359Z,23.90
2019-04-05T20:48:48.662Z,23.53
2019-04-05T20:51:16.010Z,26.60
2019-04-05T20:53:43.344Z,27.30
2019-04-05T20:56:10.651Z,29.73
2019-04-05T20:58:38.269Z,27.23
2019-04-05T21:01:05.829Z,30.10
2019-04-05T21:03:33.092Z,27.60
2019-04-05T21:06:02.558Z,30.57
2019-04-05T21:08:29.924Z,29.83
2019-04-05T21:10:57.119Z,30.43
2019-04-05T21:13:24.656Z,31.03
2019-04-05T21:15:51.931Z,31.10
2019-04-05T21:18:19.212Z,29.97
2019-04-05T21:20:46.613Z,28.70
2019-04-05T21:23:14.040Z,28.37
2019-04-05T21:25:41.280Z,28.67
2019-04-05T21:28:08.556Z,28.83
2019-04-05T21:30:35.848Z,29.07
2019-04-05T21:33:03.187Z,29.37
2019-04-05T21:35:30.739Z,27.87
2019-04-05T21:37:57.950Z,27.20
2019-04-05T21:40:25.092Z,25.10
2019-04-05T21:42:52.348Z,29.87
2019-04-05T21:45:19.604Z,26.60
2019-04-05T21:47:46.872Z,25.67
2019-04-05T21:50:14.003Z,25.87
2019-04-05T21:52:41.343Z,26.40
2019-04-05T21:55:08.548Z,25.70
2019-04-05T21:57:35.944Z,25.60
2019-04-05T22:00:06.036Z,25.43
2019-04-05T22:02:33.180Z,25.37
2019-04-05T22:05:01.397Z,26.03
2019-04-05T22:07:29.120Z,28.57
2019-04-05T22:09:56.393Z,26.43
2019-04-05T22:12:23.639Z,26.50
2019-04-05T22:14:50.921Z,26.10
2019-04-05T22:17:18.187Z,27.30
2019-04-05T22:19:45.720Z,24.90
2019-04-05T22:22:13.028Z,27.00
2019-04-05T22:24:40.306Z,26.20
2019-04-05T22:27:07.557Z,25.60
2019-04-05T22:29:34.803Z,25.77
2019-04-05T22:32:02.042Z,28.33
2019-04-05T22:34:29.359Z,25.00
2019-04-05T22:36:56.625Z,25.60
2019-04-05T22:39:23.948Z,26.50
2019-04-05T22:41:51.209Z,26.93
2019-04-05T22:44:18.459Z,25.37
2019-04-05T22:46:45.771Z,24.57
2019-04-05T22:49:12.879Z,25.77
2019-04-05T22:51:40.175Z,24.60
2019-04-05T22:54:07.496Z,24.43
2019-04-05T22:56:34.802Z,27.03
2019-04-05T22:59:02.081Z,25.80
2019-04-05T23:01:29.376Z,26.30
2019-04-05T23:03:56.908Z,27.77
2019-04-05T23:06:24.167Z,27.77
2019-04-05T23:08:51.845Z,27.53
2019-04-05T23:11:19.061Z,26.97
2019-04-05T23:13:46.359Z,25.70
2019-04-05T23:16:13.637Z,29.47
2019-04-05T23:18:40.881Z,29.00
2019-04-05T23:21:08.133Z,28.07
2019-04-05T23:23:35.477Z,28.17
2019-04-05T23:26:02.764Z,29.07
2019-04-05T23:28:30.176Z,28.70
2019-04-05T23:30:57.473Z,30.50
2019-04-05T23:33:24.634Z,30.00
2019-04-05T23:35:51.971Z,28.80
2019-04-05T23:38:19.414Z,29.27
2019-04-05T23:40:46.673Z,27.03
2019-04-05T23:43:13.941Z,26.27
2019-04-05T23:45:41.225Z,27.00
2019-04-05T23:48:08.844Z,27.23
2019-04-05T23:50:35.900Z,27.17
2019-04-05T23:53:03.147Z,31.70
2019-04-05T23:55:33.391Z,31.50
2019-04-05T23:57:59.810Z,30.40
